Time;durP1;ratioP1;P1;durP2;ratioP2;P2;SDS_P1;SDS_P2;PMS_P1;PMS_P2;Temp;Humidity;BMP_temperature;BMP_pressure;BME280_temperature;BME280_humidity;BME280_pressure;Samples;Min_cycle;Max_cycle;Signal;HPM_P1;HPM_P2
2022/01/25 00:24:51;;;;;;;46.53;29.83;;;;;;;9.49;56.91;103345.81;5052799;28;20047;-65
2022/01/25 00:30:00;;;;;;;48.80;30.27;;;;;;;9.46;56.92;103347.69;5053137;28;20049;-64
2022/01/25 00:32:26;;;;;;;52.10;32.35;;;;;;;9.46;56.91;103351.25;5052602;28;20049;-65
2022/01/25 00:34:53;;;;;;;53.17;33.35;;;;;;;9.43;56.99;103345.09;5051279;28;20064;-64
2022/01/25 00:37:20;;;;;;;48.55;31.23;;;;;;;9.40;56.91;103346.06;5052824;28;20124;-65
2022/01/25 00:39:47;;;;;;;50.30;31.98;;;;;;;9.38;56.90;103345.22;5079538;28;20136;-66
2022/01/25 00:42:13;;;;;;;53.70;32.20;;;;;;;9.33;56.90;103338.22;5032768;28;20492;-65
2022/01/25 00:44:46;;;;;;;49.20;31.27;;;;;;;9.32;57.01;103350.75;5051220;28;20044;-65
2022/01/25 00:47:15;;;;;;;51.85;32.22;;;;;;;9.30;57.10;103349.91;5054315;28;20075;-64
2022/01/25 00:49:44;;;;;;;51.08;32.45;;;;;;;9.28;57.03;103346.38;5034618;28;20128;-65
2022/01/25 00:52:25;;;;;;;50.53;31.92;;;;;;;9.26;56.89;103355.38;5052374;28;20043;-64
2022/01/25 00:54:57;;;;;;;47.05;30.20;;;;;;;9.25;57.00;103343.78;5047193;28;20036;-64
2022/01/25 00:57:25;;;;;;;47.72;30.17;;;;;;;9.28;57.14;103342.81;5044752;28;20491;-65
2022/01/25 00:59:52;;;;;;;45.85;29.42;;;;;;;9.30;57.10;103343.66;5038293;28;20045;-65
2022/01/25 01:02:18;;;;;;;45.95;29.77;;;;;;;9.31;57.30;103338.25;5053494;28;20116;-64
2022/01/25 01:04:50;;;;;;;48.90;30.58;;;;;;;9.32;57.29;103331.09;5046886;28;20049;-66
2022/01/25 01:07:17;;;;;;;48.33;31.25;;;;;;;9.32;57.13;103344.50;5051037;28;20052;-65
2022/01/25 01:09:47;;;;;;;50.45;30.17;;;;;;;9.30;57.26;103349.91;5039491;28;20131;-64
2022/01/25 01:13:17;;;;;;;48.58;30.45;;;;;;;9.27;57.07;103339.25;5061479;28;20087;-64
2022/01/25 01:15:26;;;;;;;53.63;32.35;;;;;;;9.24;57.25;103348.25;5034265;28;20128;-65
2022/01/25 01:29:11;;;;;;;47.53;29.63;;;;;;;9.16;57.32;103330.59;5051528;28;20041;-64
2022/01/25 01:42:34;;;;;;;48.42;29.55;;;;;;;9.15;57.39;103342.25;5051440;28;20375;-65
2022/01/25 01:47:49;;;;;;;49.78;31.83;;;;;;;9.14;57.47;103341.38;5066522;28;20040;-65
2022/01/25 01:50:28;;;;;;;52.35;31.58;;;;;;;9.12;57.33;103345.00;5071981;28;20052;-65
2022/01/25 01:55:26;;;;;;;53.47;33.05;;;;;;;9.06;57.46;103355.88;5071892;28;20049;-65
2022/01/25 01:57:54;;;;;;;58.03;34.60;;;;;;;9.06;57.46;103347.84;5071562;28;20044;-65
2022/01/25 02:00:24;;;;;;;51.50;31.88;;;;;;;9.05;57.59;103348.75;5071783;28;20102;-65
2022/01/25 02:02:51;;;;;;;52.67;32.00;;;;;;;9.03;57.49;103343.44;5035089;28;20049;-65
2022/01/25 02:05:18;;;;;;;49.65;30.50;;;;;;;9.04;57.57;103344.31;5040107;28;20521;-65
2022/01/25 02:07:44;;;;;;;50.83;30.88;;;;;;;9.05;57.65;103349.66;5045045;28;20038;-65
2022/01/25 02:10:11;;;;;;;49.95;31.10;;;;;;;9.05;57.57;103344.28;5050053;28;20486;-65
2022/01/25 02:12:38;;;;;;;52.83;32.58;;;;;;;9.06;57.77;103342.47;5071548;28;20115;-65
2022/01/25 02:15:05;;;;;;;52.95;31.75;;;;;;;9.09;57.65;103347.75;5071699;28;20159;-64
2022/01/25 02:23:21;;;;;;;56.13;30.60;;;;;;;9.08;57.68;103327.25;5070260;28;20448;-65
2022/01/25 02:25:53;;;;;;;52.40;30.48;;;;;;;9.08;57.66;103321.88;5069192;28;20040;-65
2022/01/25 02:28:20;;;;;;;48.92;30.40;;;;;;;9.07;57.66;103328.16;5069758;28;20044;-65
2022/01/25 02:30:48;;;;;;;50.83;31.17;;;;;;;9.08;57.79;103329.91;5071259;28;20039;-65
2022/01/25 02:33:15;;;;;;;54.65;32.85;;;;;;;9.05;57.83;103325.53;5071217;28;20068;-65
2022/01/25 02:35:42;;;;;;;50.58;30.73;;;;;;;9.04;57.78;103320.19;5071241;28;20032;-65
2022/01/25 02:38:09;;;;;;;53.90;31.48;;;;;;;9.02;57.87;103316.69;5071289;28;20048;-65
2022/01/25 02:40:36;;;;;;;53.35;32.08;;;;;;;8.99;57.99;103320.31;5056672;28;20037;-65
2022/01/25 02:43:06;;;;;;;57.03;32.50;;;;;;;9.02;57.95;103316.69;5051312;28;20064;-65
2022/01/25 02:45:35;;;;;;;53.08;33.10;;;;;;;9.03;57.83;103324.69;5051294;28;20103;-65
2022/01/25 02:50:50;;;;;;;57.10;33.53;;;;;;;9.07;57.89;103321.00;5051153;28;20071;-65
2022/01/25 02:53:18;;;;;;;56.60;32.20;;;;;;;9.09;57.94;103324.53;5056046;28;20243;-64
2022/01/25 02:55:45;;;;;;;55.58;33.85;;;;;;;9.10;58.01;103326.28;5050945;28;20045;-65
2022/01/25 02:58:12;;;;;;;53.42;33.00;;;;;;;9.10;58.03;103322.72;5050078;28;20069;-65
2022/01/25 03:00:38;;;;;;;59.78;34.85;;;;;;;9.09;57.99;103323.63;5050886;28;20241;-64
2022/01/25 03:03:08;;;;;;;58.05;34.38;;;;;;;9.09;57.79;103327.19;5051117;28;20045;-64
2022/01/25 03:05:35;;;;;;;54.83;32.63;;;;;;;9.09;58.04;103315.59;5050677;28;20211;-65
2022/01/25 03:08:02;;;;;;;55.33;32.42;;;;;;;9.09;57.86;103310.22;5066466;28;20123;-65
2022/01/25 03:10:38;;;;;;;56.33;33.30;;;;;;;9.07;57.95;103312.97;5069178;28;20033;-65
2022/01/25 03:13:15;;;;;;;62.17;34.72;;;;;;;9.02;57.96;103306.84;5067291;28;20049;-65
2022/01/25 03:15:56;;;;;;;62.72;35.65;;;;;;;8.98;58.07;103301.59;5050186;28;20079;-64
2022/01/25 03:21:03;;;;;;;61.53;34.20;;;;;;;8.94;58.02;103298.09;5050815;28;20560;-65
2022/01/25 03:23:31;;;;;;;62.10;35.63;;;;;;;8.97;57.85;103289.09;5069282;28;20041;-65
2022/01/25 03:25:58;;;;;;;56.30;34.53;;;;;;;8.98;57.98;103278.34;5070858;28;20112;-65
2022/01/25 03:28:25;;;;;;;59.88;35.85;;;;;;;9.00;57.97;103287.22;5070541;28;20040;-64
2022/01/25 03:30:51;;;;;;;59.30;34.90;;;;;;;9.02;57.94;103276.47;5070641;28;20076;-66
2022/01/25 03:33:18;;;;;;;66.00;34.88;;;;;;;9.02;58.00;103281.84;5069343;28;20139;-65
2022/01/25 03:35:46;;;;;;;60.35;36.05;;;;;;;9.02;58.24;103281.84;5070515;28;20053;-65
2022/01/25 03:38:13;;;;;;;57.92;33.50;;;;;;;9.01;57.92;103280.94;5072017;28;20040;-65
2022/01/25 03:40:40;;;;;;;55.88;32.40;;;;;;;9.00;57.94;103281.88;5074342;28;20041;-65
2022/01/25 03:43:11;;;;;;;56.45;32.53;;;;;;;8.98;58.01;103274.78;5065408;28;20044;-65
2022/01/25 03:45:41;;;;;;;57.42;33.47;;;;;;;8.98;58.12;103282.81;5054459;28;20094;-65
2022/01/25 03:50:39;;;;;;;56.90;33.70;;;;;;;8.94;58.04;103287.38;5054449;28;20114;-65
2022/01/25 03:53:10;;;;;;;58.00;34.25;;;;;;;8.90;58.20;103299.06;5054508;28;20052;-65
2022/01/25 03:55:38;;;;;;;59.17;34.08;;;;;;;8.86;58.08;103295.59;5054175;28;20045;-65
2022/01/25 03:58:05;;;;;;;57.92;34.05;;;;;;;8.85;58.09;103299.19;5054020;28;20067;-65
2022/01/25 04:00:33;;;;;;;61.00;34.70;;;;;;;8.86;58.25;103295.59;5049539;28;20076;-65
2022/01/25 04:03:12;;;;;;;58.15;33.78;;;;;;;8.88;58.32;103293.75;5042428;28;20285;-66
2022/01/25 04:05:50;;;;;;;61.72;35.50;;;;;;;8.90;58.10;103302.63;5054265;28;20056;-65
2022/01/25 04:08:19;;;;;;;61.70;34.83;;;;;;;8.93;58.18;103300.81;5053856;28;20560;-65
2022/01/25 04:10:46;;;;;;;60.47;33.97;;;;;;;8.94;58.21;103294.53;5053893;28;20045;-65
2022/01/25 04:13:18;;;;;;;60.35;36.08;;;;;;;8.95;58.46;103290.94;5053994;28;20033;-64
2022/01/25 04:15:46;;;;;;;60.70;35.33;;;;;;;8.94;58.16;103291.88;5053806;28;20120;-64
2022/01/25 04:18:32;;;;;;;64.57;37.03;;;;;;;8.94;58.41;103302.59;5053449;28;20123;-65
2022/01/25 04:21:09;;;;;;;65.45;35.85;;;;;;;8.94;58.46;103298.09;5052239;28;20131;-64
2022/01/25 04:26:21;;;;;;;63.72;34.78;;;;;;;8.96;58.40;103292.72;5053827;28;20071;-65
2022/01/25 04:28:48;;;;;;;61.00;34.83;;;;;;;8.96;58.41;103276.63;5053379;28;20445;-64
2022/01/25 04:31:18;;;;;;;63.58;35.13;;;;;;;8.96;58.39;103290.91;5053360;28;20037;-64
2022/01/25 04:34:07;;;;;;;58.88;34.05;;;;;;;8.96;58.48;103290.03;5053486;28;20127;-64
2022/01/25 04:50:35;;;;;;;67.10;35.58;;;;;;;8.81;58.39;103278.75;5072444;28;19920;-65
2022/01/25 04:53:21;;;;;;;62.55;35.53;;;;;;;8.83;58.46;103278.72;5073119;28;20071;-65
2022/01/25 04:56:01;;;;;;;69.20;35.85;;;;;;;8.85;58.55;103285.78;5072997;28;20071;-65
2022/01/25 04:58:37;;;;;;;68.13;36.85;;;;;;;8.85;58.47;103283.09;5072875;28;20076;-65
2022/01/25 05:01:04;;;;;;;68.72;37.40;;;;;;;8.84;58.50;103284.03;5072751;28;20040;-64
2022/01/25 05:03:49;;;;;;;65.10;37.25;;;;;;;8.83;58.51;103286.75;5057660;28;20056;-65
2022/01/25 05:06:17;;;;;;;67.40;35.58;;;;;;;8.81;58.61;103283.22;5052819;28;20080;-65
2022/01/25 05:08:48;;;;;;;66.65;37.72;;;;;;;8.83;58.71;103289.41;5052653;28;20470;-65
2022/01/25 05:11:25;;;;;;;64.00;36.35;;;;;;;8.85;58.66;103282.22;5053090;28;20140;-65
2022/01/25 05:14:13;;;;;;;66.55;38.30;;;;;;;8.87;58.65;103272.34;5053136;28;20068;-65
2022/01/25 05:16:51;;;;;;;65.03;36.20;;;;;;;8.90;58.55;103277.63;5052743;28;20136;-65
2022/01/25 05:19:36;;;;;;;62.03;35.00;;;;;;;8.91;58.82;103277.59;5053268;28;20136;-65
2022/01/25 05:22:21;;;;;;;63.13;36.42;;;;;;;8.85;58.48;103285.78;5052547;28;20094;-65
2022/01/25 05:24:49;;;;;;;61.08;35.08;;;;;;;8.80;58.67;103278.78;5052618;28;20049;-65
2022/01/25 05:27:18;;;;;;;62.10;35.03;;;;;;;8.78;58.68;103286.84;5067515;28;20409;-65
2022/01/25 05:29:44;;;;;;;63.85;35.88;;;;;;;8.75;58.76;103289.59;5072141;28;20129;-64
2022/01/25 05:32:12;;;;;;;58.63;33.72;;;;;;;8.75;58.80;103278.91;5072135;28;20036;-65
2022/01/25 05:34:40;;;;;;;66.93;35.88;;;;;;;8.77;59.02;103279.75;5072242;28;20457;-65
2022/01/25 05:37:07;;;;;;;68.05;39.38;;;;;;;8.80;58.86;103276.97;5059298;28;20045;-64
2022/01/25 05:39:36;;;;;;;64.57;36.40;;;;;;;8.83;58.86;103279.59;5051768;28;20430;-65
2022/01/25 05:44:57;;;;;;;67.97;36.67;;;;;;;8.78;58.71;103281.50;5052457;28;20087;-65
2022/01/25 05:47:28;;;;;;;64.90;36.50;;;;;;;8.79;58.71;103282.38;5051902;28;20156;-65
2022/01/25 05:49:57;;;;;;;69.85;40.45;;;;;;;8.75;58.64;103278.00;5052063;28;20064;-65
2022/01/25 05:52:24;;;;;;;67.90;39.53;;;;;;;8.70;58.60;103283.50;5052946;28;20047;-65
2022/01/25 05:54:53;;;;;;;74.25;41.13;;;;;;;8.69;58.73;103281.72;5084168;28;20132;-65
2022/01/25 05:57:20;;;;;;;75.38;41.08;;;;;;;8.68;58.63;103277.28;5064407;28;20036;-65
2022/01/25 05:59:46;;;;;;;71.20;40.83;;;;;;;8.70;58.69;103278.13;5071585;28;20033;-64
2022/01/25 06:02:17;;;;;;;71.97;40.35;;;;;;;8.70;58.70;103278.13;5070999;28;20071;-65
2022/01/25 06:04:47;;;;;;;71.45;39.63;;;;;;;8.72;58.68;103275.41;5071866;28;20056;-64
2022/01/25 06:07:14;;;;;;;72.53;41.50;;;;;;;8.75;58.72;103272.66;5071725;28;20052;-65
2022/01/25 06:09:41;;;;;;;67.32;39.72;;;;;;;8.76;58.53;103272.63;5071178;28;20052;-65
2022/01/25 06:12:10;;;;;;;70.45;39.42;;;;;;;8.74;58.65;103263.75;5069380;28;20259;-64
2022/01/25 06:14:38;;;;;;;72.10;40.25;;;;;;;8.72;58.63;103259.34;5071696;28;20454;-65
2022/01/25 06:17:05;;;;;;;68.88;39.58;;;;;;;8.73;58.58;103263.78;5071549;28;20086;-65
2022/01/25 06:19:32;;;;;;;71.75;40.33;;;;;;;8.74;58.58;103268.22;5071277;28;20045;-65
2022/01/25 06:21:59;;;;;;;71.95;41.15;;;;;;;8.75;58.52;103257.47;5071059;28;20067;-64
2022/01/25 06:24:26;;;;;;;72.10;39.92;;;;;;;8.75;58.51;103260.13;5071536;28;20123;-64
2022/01/25 06:26:53;;;;;;;71.88;40.50;;;;;;;8.77;58.55;103260.09;5071244;28;20121;-64
2022/01/25 06:29:20;;;;;;;68.80;40.17;;;;;;;8.79;58.56;103267.19;5060853;28;20029;-64
2022/01/25 06:31:47;;;;;;;69.10;39.70;;;;;;;8.82;58.43;103268.91;5052194;28;20036;-64
2022/01/25 06:34:19;;;;;;;68.57;40.17;;;;;;;8.82;58.41;103267.09;5050076;28;20391;-65
2022/01/25 06:36:47;;;;;;;71.60;40.55;;;;;;;8.81;58.37;103270.69;5051269;28;20033;-65
2022/01/25 06:39:15;;;;;;;72.78;41.30;;;;;;;8.81;58.44;103265.34;5051337;28;20045;-64
2022/01/25 06:41:41;;;;;;;74.85;39.55;;;;;;;8.81;58.52;103268.03;5051100;28;20076;-65
2022/01/25 06:44:08;;;;;;;69.45;42.10;;;;;;;8.82;58.51;103272.47;5051083;28;20491;-64
2022/01/25 06:46:35;;;;;;;69.70;39.78;;;;;;;8.81;58.42;103269.81;5052167;28;20065;-64
2022/01/25 06:49:03;;;;;;;70.95;40.22;;;;;;;8.80;58.56;103268.94;5050721;28;20041;-64
2022/01/25 06:51:30;;;;;;;72.75;41.53;;;;;;;8.82;58.46;103271.59;5050906;28;20068;-64
2022/01/25 06:53:57;;;;;;;69.40;40.05;;;;;;;8.81;58.24;103268.03;5051092;28;20039;-65
2022/01/25 06:56:24;;;;;;;69.22;39.85;;;;;;;8.81;58.25;103272.50;5050958;28;20110;-64
2022/01/25 06:58:50;;;;;;;68.40;39.80;;;;;;;8.80;58.21;103279.66;5049869;28;20072;-65
2022/01/25 07:01:17;;;;;;;64.78;38.45;;;;;;;8.81;58.32;103276.06;5048788;28;20168;-65
2022/01/25 07:03:49;;;;;;;69.63;38.95;;;;;;;8.81;58.22;103281.41;5049426;28;20402;-65
2022/01/25 07:06:16;;;;;;;67.25;38.17;;;;;;;8.83;58.29;103284.06;5031114;28;20045;-65
2022/01/25 07:08:45;;;;;;;71.55;39.40;;;;;;;8.83;58.22;103284.06;5032793;28;20088;-64
2022/01/25 07:11:12;;;;;;;68.40;39.95;;;;;;;8.80;58.05;103297.53;5030258;28;20060;-65
2022/01/25 07:13:43;;;;;;;68.85;40.75;;;;;;;8.76;58.18;103293.16;5033159;28;20068;-64
2022/01/25 07:16:14;;;;;;;;;;;;;;;8.74;58.03;103285.16;5034860;28;20458;-64
2022/01/25 07:18:41;;;;;;;66.65;38.53;;;;;;;8.77;58.22;103281.53;5037360;28;19928;-64
2022/01/25 07:21:07;;;;;;;67.38;37.95;;;;;;;8.75;58.07;103291.41;5043804;28;20043;-64
2022/01/25 07:23:35;;;;;;;69.20;39.83;;;;;;;8.70;57.95;103299.56;5039230;28;20037;-65
2022/01/25 07:26:02;;;;;;;68.82;37.97;;;;;;;8.66;57.73;103295.19;5040211;28;20037;-64
2022/01/25 07:28:29;;;;;;;71.82;41.08;;;;;;;8.65;57.96;103296.13;5050494;28;20489;-65
2022/01/25 07:30:56;;;;;;;70.15;39.30;;;;;;;8.66;57.84;103294.31;5048086;28;20087;-64
2022/01/25 07:33:32;;;;;;;65.90;38.35;;;;;;;8.67;57.83;103296.97;5039619;28;20071;-64
2022/01/25 07:35:58;;;;;;;69.25;39.72;;;;;;;8.71;57.82;103295.09;5034633;28;20072;-64
2022/01/25 07:38:32;;;;;;;66.68;39.13;;;;;;;8.72;57.76;103297.72;5034730;28;20041;-64
2022/01/25 07:41:02;;;;;;;71.05;40.35;;;;;;;8.73;57.62;103298.59;5034399;28;20053;-64
2022/01/25 07:43:39;;;;;;;63.53;38.35;;;;;;;8.73;57.71;103301.28;5034077;28;20430;-64
2022/01/25 07:46:10;;;;;;;67.57;38.78;;;;;;;8.73;57.69;103288.78;5033078;28;20069;-64
2022/01/25 07:48:51;;;;;;;69.97;39.95;;;;;;;8.76;57.64;103290.50;5052743;28;20520;-64
2022/01/25 07:51:18;;;;;;;68.35;39.17;;;;;;;8.77;57.64;103292.25;5074031;28;20083;-63
2022/01/25 07:53:49;;;;;;;64.65;38.17;;;;;;;8.76;57.63;103287.81;5074517;28;20490;-63
2022/01/25 07:56:16;;;;;;;66.70;39.22;;;;;;;8.76;57.71;103291.38;5050497;28;20120;-64
2022/01/25 07:58:43;;;;;;;71.05;39.13;;;;;;;8.74;57.57;103290.53;5054308;28;20112;-64
2022/01/25 08:01:09;;;;;;;66.57;38.63;;;;;;;8.75;57.88;103286.94;5042401;28;20045;-64
2022/01/25 08:03:43;;;;;;;65.10;37.70;;;;;;;8.75;57.49;103288.72;5034444;28;20049;-65
2022/01/25 08:06:15;;;;;;;68.00;39.58;;;;;;;8.73;57.55;103294.13;5033177;28;20562;-66
2022/01/25 08:08:47;;;;;;;72.30;39.08;;;;;;;8.72;57.43;103296.84;5033995;28;20117;-64
2022/01/25 08:11:34;;;;;;;65.53;37.33;;;;;;;8.70;57.37;103299.56;5034344;28;20041;-65
2022/01/25 08:14:24;;;;;;;71.05;37.05;;;;;;;8.71;57.31;103303.13;5034914;28;20124;-65
2022/01/25 08:17:00;;;;;;;67.07;37.92;;;;;;;8.71;57.37;103293.28;5017794;28;20571;-66
2022/01/25 08:19:43;;;;;;;72.10;40.78;;;;;;;8.73;57.22;103293.25;5039168;28;20040;-64
2022/01/25 08:22:15;;;;;;;;;;;;;;;8.71;57.37;103290.59;5074431;28;20063;-65
2022/01/25 08:24:54;;;;;;;72.25;39.72;;;;;;;8.75;57.28;103294.09;5061816;28;20340;-64
2022/01/25 08:27:25;;;;;;;71.88;40.42;;;;;;;8.72;57.14;103300.41;5053279;28;20057;-64
2022/01/25 08:29:56;;;;;;;77.30;40.97;;;;;;;8.69;57.07;103300.47;5052396;28;20391;-64
2022/01/25 08:32:48;;;;;;;69.57;39.50;;;;;;;8.68;57.16;103301.41;5052425;28;20044;-65
2022/01/25 08:35:19;;;;;;;66.53;38.20;;;;;;;8.70;57.05;103301.34;5053700;28;20052;-64
2022/01/25 08:37:51;;;;;;;68.70;39.35;;;;;;;8.71;57.15;103311.16;5053106;28;20045;-64
2022/01/25 08:40:24;;;;;;;71.40;40.20;;;;;;;8.72;57.21;103305.75;5064169;28;20139;-65
2022/01/25 08:43:03;;;;;;;74.38;39.78;;;;;;;8.74;57.12;103305.72;5072543;28;20553;-64
2022/01/25 08:45:34;;;;;;;79.22;41.33;;;;;;;8.74;57.05;103306.59;5069960;28;20053;-64
2022/01/25 08:48:13;;;;;;;75.65;41.58;;;;;;;8.78;57.13;103310.97;5043007;28;20371;-65
2022/01/25 08:50:44;;;;;;;75.88;40.58;;;;;;;8.80;57.07;103305.56;5060847;28;20106;-64
2022/01/25 08:53:14;;;;;;;71.10;39.75;;;;;;;8.82;57.03;103309.97;5059101;28;20033;-64
2022/01/25 08:55:46;;;;;;;73.03;39.70;;;;;;;8.85;57.27;103315.25;5041653;28;20449;-64
2022/01/25 08:58:18;;;;;;;76.13;40.97;;;;;;;8.89;57.14;103313.38;5083633;28;20045;-63
2022/01/25 09:00:44;;;;;;;74.13;42.33;;;;;;;8.93;57.06;103320.47;5050743;28;20462;-64
2022/01/25 09:03:14;;;;;;;73.50;40.95;;;;;;;8.94;56.96;103318.66;5051614;28;20045;-64
2022/01/25 09:05:42;;;;;;;76.93;43.22;;;;;;;8.93;56.80;103312.44;5051467;28;20049;-64
2022/01/25 09:08:09;;;;;;;74.65;41.15;;;;;;;8.95;56.93;103317.75;5051465;28;20111;-64
2022/01/25 09:10:36;;;;;;;80.55;42.67;;;;;;;8.96;56.95;103309.66;5051644;28;20046;-63
2022/01/25 09:13:07;;;;;;;70.10;40.08;;;;;;;8.98;56.83;103320.34;5052860;28;20542;-65
2022/01/25 09:15:33;;;;;;;66.95;39.47;;;;;;;8.97;56.78;103316.78;5052501;28;20467;-64
2022/01/25 09:18:00;;;;;;;70.55;40.45;;;;;;;8.95;56.67;103318.63;5050841;28;20059;-64
2022/01/25 09:20:27;;;;;;;71.20;40.13;;;;;;;8.94;56.67;103324.03;5051677;28;20518;-65
2022/01/25 09:23:00;;;;;;;68.28;39.92;;;;;;;8.93;56.77;103316.91;5051094;28;20052;-64
2022/01/25 09:25:30;;;;;;;68.70;39.20;;;;;;;8.93;56.71;103316.91;5051490;28;20048;-66
2022/01/25 09:27:57;;;;;;;70.55;40.25;;;;;;;8.92;56.73;103332.09;5057145;28;20111;-64
2022/01/25 09:30:24;;;;;;;71.82;39.60;;;;;;;8.91;56.57;103328.50;5055846;28;20061;-65
2022/01/25 09:32:51;;;;;;;70.85;39.97;;;;;;;8.92;56.75;103329.44;5060571;28;20051;-65
2022/01/25 09:35:18;;;;;;;69.28;40.10;;;;;;;8.92;56.70;103334.78;5071595;28;20494;-64
2022/01/25 09:37:45;;;;;;;67.63;39.33;;;;;;;8.91;56.57;103330.31;5054602;28;20052;-64
2022/01/25 09:40:13;;;;;;;71.65;39.38;;;;;;;8.91;56.66;103341.91;5050282;28;20037;-64
2022/01/25 09:42:41;;;;;;;64.03;37.40;;;;;;;8.93;56.73;103338.34;5052230;28;20051;-65
2022/01/25 09:45:08;;;;;;;68.70;39.72;;;;;;;8.93;56.62;103343.72;5051997;28;20053;-64
2022/01/25 09:47:39;;;;;;;70.28;39.17;;;;;;;8.95;56.52;103339.19;5051644;28;20494;-64
2022/01/25 09:50:06;;;;;;;75.07;40.40;;;;;;;8.95;56.52;103331.16;5050625;28;20487;-65
2022/01/25 09:52:33;;;;;;;74.70;41.80;;;;;;;8.95;56.68;103334.72;5048613;28;20042;-64
2022/01/25 09:55:08;;;;;;;81.18;43.55;;;;;;;8.94;56.45;103335.63;5032182;28;20083;-64
2022/01/25 09:57:35;;;;;;;79.93;42.20;;;;;;;8.95;56.49;103339.19;5031536;28;20513;-65
2022/01/25 10:00:06;;;;;;;78.38;42.40;;;;;;;8.97;56.43;103337.34;5030647;28;20458;-67
2022/01/25 10:02:36;;;;;;;79.35;42.17;;;;;;;8.99;56.39;103340.88;5031972;28;20045;-64
2022/01/25 10:05:24;;;;;;;82.30;42.47;;;;;;;8.99;56.36;103339.06;5046897;28;20064;-64
2022/01/25 10:08:00;;;;;;;78.07;41.85;;;;;;;9.02;56.54;103341.69;5049758;28;20053;-65
2022/01/25 10:10:28;;;;;;;77.72;41.50;;;;;;;9.02;56.41;103347.03;5050326;28;20431;-64
2022/01/25 10:15:26;;;;;;;73.78;41.33;;;;;;;9.00;56.25;103348.00;5051508;28;20545;-65
2022/01/25 10:18:10;;;;;;;77.15;41.00;;;;;;;9.01;56.31;103357.81;5051399;28;20037;-64
2022/01/25 10:20:41;;;;;;;82.20;43.40;;;;;;;9.03;56.50;103359.53;5065007;28;20454;-64
2022/01/25 10:23:31;;;;;;;81.10;44.28;;;;;;;9.04;56.35;103349.69;5070079;28;20506;-64
2022/01/25 10:26:01;;;;;;;81.28;42.60;;;;;;;9.05;56.32;103349.66;5033763;28;20068;-64
2022/01/25 10:28:30;;;;;;;83.00;41.78;;;;;;;9.04;56.40;103347.88;5049890;28;20095;-64
2022/01/25 10:31:00;;;;;;;74.60;40.67;;;;;;;9.02;56.21;103349.72;5044083;28;20049;-64
2022/01/25 10:33:51;;;;;;;82.68;42.60;;;;;;;9.02;56.30;103344.34;5050040;28;20087;-64
2022/01/25 10:36:45;;;;;;;79.35;41.75;;;;;;;9.06;56.20;103347.84;5077983;28;20457;-65
2022/01/25 10:39:21;;;;;;;80.05;41.08;;;;;;;9.07;56.14;103345.13;5067104;28;20401;-65
2022/01/25 10:41:48;;;;;;;75.35;40.65;;;;;;;9.08;56.16;103335.28;5071246;28;20049;-65
2022/01/25 10:44:17;;;;;;;81.10;42.78;;;;;;;9.09;56.17;103342.41;5071318;28;20355;-65
2022/01/25 10:46:44;;;;;;;77.25;40.78;;;;;;;9.06;56.02;103342.47;5070313;28;20051;-64
2022/01/25 10:49:13;;;;;;;75.63;40.42;;;;;;;9.06;56.18;103334.44;5070584;28;20037;-64
2022/01/25 10:51:44;;;;;;;77.43;42.05;;;;;;;9.06;56.10;103334.44;5054004;28;20049;-65
2022/01/25 10:54:21;;;;;;;77.55;41.28;;;;;;;9.04;55.99;103336.28;5049828;28;20057;-64
2022/01/25 10:56:54;;;;;;;76.40;41.17;;;;;;;9.05;56.05;103332.69;5050568;28;20045;-64
2022/01/25 10:59:32;;;;;;;78.65;41.92;;;;;;;9.05;56.00;103333.56;5054644;28;20390;-65
2022/01/25 11:02:01;;;;;;;78.18;40.97;;;;;;;9.06;56.03;103343.38;5041897;28;20044;-63
2022/01/25 11:04:36;;;;;;;76.60;40.78;;;;;;;9.06;55.88;103343.38;5033989;28;20125;-65
2022/01/25 11:07:08;;;;;;;83.13;42.77;;;;;;;9.06;55.79;103342.47;5048956;28;20521;-65
2022/01/25 11:09:43;;;;;;;82.57;42.08;;;;;;;9.09;56.08;103337.03;5044051;28;20056;-64
2022/01/25 11:12:14;;;;;;;78.88;42.17;;;;;;;9.12;55.88;103339.66;5050144;28;20075;-65
2022/01/25 11:14:56;;;;;;;79.15;42.28;;;;;;;9.15;55.89;103336.88;5050614;28;20140;-64
2022/01/25 11:17:28;;;;;;;81.38;42.92;;;;;;;9.17;55.84;103337.72;5050801;28;20052;-65
2022/01/25 11:19:55;;;;;;;81.47;42.58;;;;;;;9.19;55.85;103335.88;5050573;28;20048;-64
2022/01/25 11:22:23;;;;;;;83.95;42.65;;;;;;;9.21;55.84;103342.97;5050607;28;20059;-64
2022/01/25 11:25:22;;;;;;;78.22;42.72;;;;;;;9.21;55.73;103339.41;5038333;28;20474;-65
2022/01/25 11:27:51;;;;;;;73.25;40.35;;;;;;;9.23;55.83;103348.28;5045641;28;20068;-65
2022/01/25 11:30:19;;;;;;;79.93;41.47;;;;;;;9.21;55.84;103344.78;5030610;28;20044;-64
2022/01/25 11:32:50;;;;;;;79.13;43.38;;;;;;;9.19;55.71;103346.63;5064225;28;20387;-64
2022/01/25 11:35:23;;;;;;;74.68;41.58;;;;;;;9.18;55.91;103345.72;5070731;28;20047;-65
2022/01/25 11:37:51;;;;;;;81.70;41.33;;;;;;;9.18;55.92;103334.13;5070528;28;20045;-65
2022/01/25 11:40:30;;;;;;;79.82;43.03;;;;;;;9.20;55.92;103351.06;5061165;28;20083;-65
2022/01/25 11:43:17;;;;;;;75.70;42.13;;;;;;;9.20;55.96;103353.75;5039078;28;20095;-65
2022/01/25 11:45:49;;;;;;;78.30;41.58;;;;;;;9.20;55.74;103354.63;5030684;28;20038;-66
2022/01/25 11:48:24;;;;;;;82.22;43.78;;;;;;;9.18;55.94;103351.09;5030548;28;20068;-65
2022/01/25 11:50:51;;;;;;;79.93;42.27;;;;;;;9.17;55.90;103354.69;5059463;28;20434;-64
2022/01/25 11:53:23;;;;;;;82.93;42.58;;;;;;;9.16;55.77;103352.06;5070661;28;20036;-65
2022/01/25 11:55:54;;;;;;;82.78;42.60;;;;;;;9.15;55.90;103350.28;5070396;28;20541;-65
2022/01/25 11:58:21;;;;;;;83.40;43.25;;;;;;;9.14;55.87;103352.09;5060217;28;20052;-65
2022/01/25 12:01:01;;;;;;;78.25;40.10;;;;;;;9.13;55.86;103350.34;5042144;28;20083;-64
2022/01/25 12:04:13;;;;;;;74.63;39.42;;;;;;;9.14;55.71;103343.16;5045604;28;20098;-65
2022/01/25 12:06:59;;;;;;;74.90;39.92;;;;;;;9.12;55.86;103335.16;5038551;28;20222;-64
2022/01/25 12:09:46;;;;;;;75.75;39.33;;;;;;;9.12;55.69;103327.13;5049034;28;20179;-65
2022/01/25 12:12:15;;;;;;;78.85;40.15;;;;;;;9.12;55.94;103329.81;5053019;28;20140;-64
2022/01/25 12:14:49;;;;;;;76.75;39.83;;;;;;;9.13;55.83;103325.31;5052258;28;20065;-65
2022/01/25 12:17:25;;;;;;;75.60;40.20;;;;;;;9.17;55.81;103316.28;5044626;28;20056;-65
2022/01/25 12:19:58;;;;;;;75.18;39.65;;;;;;;9.20;55.88;103316.19;5047433;28;20184;-65
2022/01/25 12:22:40;;;;;;;74.70;40.28;;;;;;;9.22;55.70;103317.91;5050463;28;20147;-65
2022/01/25 12:25:27;;;;;;;72.53;38.90;;;;;;;9.22;55.82;103307.19;5045308;28;20090;-65
2022/01/25 12:28:07;;;;;;;76.60;38.95;;;;;;;9.26;55.68;103312.47;5042193;28;20052;-65
2022/01/25 12:30:40;;;;;;;74.60;39.35;;;;;;;9.28;55.72;103307.94;5054154;28;20045;-66
2022/01/25 12:33:19;;;;;;;77.65;38.75;;;;;;;9.26;55.65;103313.34;5054912;28;20506;-65
2022/01/25 12:36:00;;;;;;;74.72;38.33;;;;;;;9.24;55.57;103308.03;5049316;28;20037;-65
2022/01/25 12:38:46;;;;;;;73.75;38.25;;;;;;;9.23;55.56;103303.59;5052640;28;20546;-65
2022/01/25 12:41:20;;;;;;;74.65;39.08;;;;;;;9.26;55.50;103305.31;5052748;28;20110;-66
2022/01/25 12:43:53;;;;;;;73.57;39.80;;;;;;;9.28;55.51;103299.91;5052947;28;20142;-65
2022/01/25 12:46:26;;;;;;;72.95;37.28;;;;;;;9.28;55.63;103297.22;5049240;28;20045;-65
2022/01/25 12:49:01;;;;;;;72.30;37.72;;;;;;;9.29;55.57;103302.56;5039434;28;20045;-65
2022/01/25 12:51:32;;;;;;;73.85;37.58;;;;;;;9.30;55.51;103298.94;5042630;28;20506;-64
2022/01/25 12:54:03;;;;;;;72.32;37.53;;;;;;;9.30;55.60;103292.72;5075620;28;20033;-64
2022/01/25 12:56:45;;;;;;;71.25;37.60;;;;;;;9.31;55.46;103291.78;5032506;28;20084;-65
2022/01/25 12:59:21;;;;;;;72.18;38.38;;;;;;;9.33;55.37;103290.81;5039422;28;20048;-65
2022/01/25 13:01:50;;;;;;;71.82;36.83;;;;;;;9.33;55.30;103290.81;5049662;28;20044;-65
2022/01/25 13:04:18;;;;;;;72.50;36.03;;;;;;;9.32;55.28;103281.00;5049653;28;20061;-64
2022/01/25 13:06:50;;;;;;;72.82;37.10;;;;;;;9.35;55.24;103282.72;5036551;28;20049;-65